createdAt,value
2023-03-10T00:00:38.630Z,6.10
2023-03-10T00:03:05.781Z,6.66
2023-03-10T00:05:32.598Z,6.05
2023-03-10T00:07:59.493Z,7.89
2023-03-10T00:10:26.393Z,6.54
2023-03-10T00:12:53.602Z,3.93
2023-03-10T00:15:20.591Z,5.01
2023-03-10T00:17:50.159Z,6.77
2023-03-10T00:20:17.041Z,7.31
2023-03-10T00:22:43.767Z,6.61
2023-03-10T00:25:11.372Z,5.14
2023-03-10T00:27:38.691Z,4.64
2023-03-10T00:30:05.951Z,7.04
2023-03-10T00:32:36.035Z,4.98
2023-03-10T00:35:05.561Z,6.08
2023-03-10T00:37:32.267Z,4.35
2023-03-10T00:39:59.120Z,5.11
2023-03-10T00:42:26.890Z,3.94
2023-03-10T00:44:53.920Z,3.55
2023-03-10T00:47:22.544Z,4.79
2023-03-10T00:49:50.706Z,6.39
2023-03-10T00:52:17.775Z,4.98
2023-03-10T00:54:44.512Z,5.74
2023-03-10T00:57:11.613Z,5.76
2023-03-10T00:59:50.105Z,5.95
2023-03-10T01:02:21.252Z,5.82
2023-03-10T01:04:48.933Z,5.10
2023-03-10T01:07:15.895Z,5.41
2023-03-10T01:09:43.009Z,5.65
2023-03-10T01:12:10.566Z,4.79
2023-03-10T01:14:37.920Z,6.54
2023-03-10T01:17:05.634Z,5.23
2023-03-10T01:19:32.482Z,6.89
2023-03-10T01:22:01.201Z,4.89
2023-03-10T01:24:27.922Z,3.77
2023-03-10T01:26:55.581Z,5.62
2023-03-10T01:29:22.373Z,5.99
2023-03-10T01:31:49.493Z,4.73
2023-03-10T01:34:16.212Z,4.81
2023-03-10T01:36:42.974Z,3.96
2023-03-10T01:39:10.755Z,3.59
2023-03-10T01:41:39.447Z,2.79
2023-03-10T01:44:13.137Z,4.34
2023-03-10T01:47:02.234Z,5.61
2023-03-10T01:49:38.654Z,6.29
2023-03-10T01:52:20.681Z,5.45
2023-03-10T01:54:54.591Z,6.31
2023-03-10T01:57:25.920Z,4.17
2023-03-10T01:59:54.281Z,4.76
2023-03-10T02:02:21.952Z,3.73
2023-03-10T02:04:52.321Z,5.43
2023-03-10T02:07:27.955Z,5.37
2023-03-10T02:09:57.009Z,5.67
2023-03-10T02:12:23.825Z,7.84
2023-03-10T02:14:53.091Z,6.61
2023-03-10T02:17:23.274Z,7.41
2023-03-10T02:19:56.159Z,7.70
2023-03-10T02:22:23.076Z,7.04
2023-03-10T02:24:57.148Z,6.36
2023-03-10T02:27:27.321Z,5.77
2023-03-10T02:30:06.604Z,5.20
2023-03-10T02:32:39.764Z,4.55
2023-03-10T02:35:07.097Z,4.49
2023-03-10T02:37:39.993Z,6.12
2023-03-10T02:40:44.582Z,5.08
2023-03-10T02:43:18.112Z,7.46
2023-03-10T02:45:47.730Z,6.49
2023-03-10T02:48:33.524Z,7.04
2023-03-10T02:51:04.587Z,5.09
2023-03-10T02:53:32.465Z,4.93
2023-03-10T02:56:00.165Z,4.66
2023-03-10T02:58:31.342Z,4.82
2023-03-10T03:00:58.987Z,3.77
2023-03-10T03:03:26.591Z,4.31
2023-03-10T03:05:53.903Z,5.12
2023-03-10T03:08:21.496Z,6.87
2023-03-10T03:10:48.493Z,4.97
2023-03-10T03:13:15.822Z,7.53
2023-03-10T03:15:43.019Z,7.91
2023-03-10T03:18:11.506Z,7.81
2023-03-10T03:20:41.598Z,6.90
2023-03-10T03:23:10.466Z,7.91
2023-03-10T03:25:41.798Z,7.21
2023-03-10T03:28:12.751Z,4.24
2023-03-10T03:30:41.627Z,5.24
2023-03-10T03:33:08.798Z,5.99
2023-03-10T03:35:38.210Z,7.07
2023-03-10T03:38:06.992Z,7.77
2023-03-10T03:40:35.839Z,6.40
2023-03-10T03:43:04.674Z,6.80
2023-03-10T03:45:33.196Z,4.13
2023-03-10T03:48:01.294Z,4.84
2023-03-10T03:50:30.973Z,2.87
2023-03-10T03:53:03.693Z,5.87
2023-03-10T03:55:30.874Z,4.82
2023-03-10T03:57:58.411Z,3.54
2023-03-10T04:00:25.706Z,3.63
2023-03-10T04:03:00.188Z,5.25
2023-03-10T04:05:28.257Z,6.76
2023-03-10T04:07:55.128Z,2.54
2023-03-10T04:10:27.210Z,3.95
2023-03-10T04:12:54.414Z,7.25
2023-03-10T04:15:22.482Z,7.38
2023-03-10T04:17:49.451Z,8.36
2023-03-10T04:20:16.869Z,8.76
2023-03-10T04:22:46.664Z,5.10
2023-03-10T04:25:14.032Z,4.78
2023-03-10T04:27:41.234Z,3.22
2023-03-10T04:30:12.269Z,4.53
2023-03-10T04:32:41.180Z,4.51
2023-03-10T04:35:12.220Z,4.27
2023-03-10T04:37:39.428Z,5.69
2023-03-10T04:40:09.461Z,5.48
2023-03-10T04:42:36.602Z,5.06
2023-03-10T04:45:04.641Z,7.06
2023-03-10T04:47:31.672Z,3.58
2023-03-10T04:50:00.096Z,4.95
2023-03-10T04:52:27.522Z,6.22
2023-03-10T04:54:54.559Z,4.87
2023-03-10T04:57:21.673Z,7.65
2023-03-10T04:59:48.403Z,8.19
2023-03-10T05:02:15.323Z,5.99
2023-03-10T05:04:42.916Z,3.50
2023-03-10T05:07:10.101Z,9.93
2023-03-10T05:09:42.863Z,6.72
2023-03-10T05:12:10.515Z,6.32
2023-03-10T05:14:38.322Z,4.95
2023-03-10T05:17:06.864Z,5.50
2023-03-10T05:19:35.440Z,2.74
2023-03-10T05:22:05.118Z,7.14
2023-03-10T05:24:34.234Z,5.33
2023-03-10T05:27:02.652Z,5.33
2023-03-10T05:29:30.547Z,6.54
2023-03-10T05:32:04.232Z,9.23
2023-03-10T05:34:35.963Z,8.86
2023-03-10T05:37:03.738Z,8.56
2023-03-10T05:39:30.568Z,7.04
2023-03-10T05:42:00.470Z,7.34
2023-03-10T05:44:30.924Z,7.58
2023-03-10T05:46:59.091Z,8.98
2023-03-10T05:49:25.924Z,7.71
2023-03-10T05:51:53.433Z,7.42
2023-03-10T05:54:20.776Z,8.09
2023-03-10T05:56:48.030Z,7.73
2023-03-10T05:59:14.829Z,9.22
2023-03-10T06:01:42.066Z,7.09
2023-03-10T06:04:08.857Z,6.74
2023-03-10T06:06:35.848Z,9.44
2023-03-10T06:09:03.777Z,7.51
2023-03-10T06:11:30.513Z,10.27
2023-03-10T06:13:57.261Z,9.94
2023-03-10T06:16:24.108Z,9.98
2023-03-10T06:18:55.963Z,11.25
2023-03-10T06:21:23.632Z,10.76
2023-03-10T06:23:51.110Z,11.34
2023-03-10T06:26:18.245Z,8.98
2023-03-10T06:28:46.516Z,11.05
2023-03-10T06:31:17.722Z,10.76
2023-03-10T06:33:45.183Z,11.92
2023-03-10T06:36:13.716Z,10.09
2023-03-10T06:38:40.936Z,12.03
2023-03-10T06:41:08.969Z,10.75
2023-03-10T06:43:36.384Z,9.42
2023-03-10T06:46:05.797Z,9.60
2023-03-10T06:48:33.127Z,12.64
2023-03-10T06:51:00.405Z,10.66
2023-03-10T06:53:28.431Z,12.32
2023-03-10T06:56:03.161Z,11.43
2023-03-10T06:58:31.099Z,12.09
2023-03-10T07:00:58.866Z,8.56
2023-03-10T07:03:26.447Z,9.12
2023-03-10T07:05:53.731Z,9.88
2023-03-10T07:08:20.928Z,9.82
2023-03-10T07:10:47.782Z,12.19
2023-03-10T07:13:16.388Z,9.87
2023-03-10T07:15:46.551Z,9.94
2023-03-10T07:18:15.031Z,9.87
2023-03-10T07:20:45.159Z,12.91
2023-03-10T07:23:13.908Z,13.33
2023-03-10T07:25:40.879Z,11.33
2023-03-10T07:28:08.680Z,10.95
2023-03-10T07:30:35.618Z,11.44
2023-03-10T07:33:02.384Z,9.32
2023-03-10T07:35:29.208Z,8.67
2023-03-10T07:37:55.924Z,9.69
2023-03-10T07:40:25.011Z,10.20
2023-03-10T07:42:54.611Z,9.05
2023-03-10T07:45:26.197Z,8.97
2023-03-10T07:47:54.366Z,7.90
2023-03-10T07:50:21.946Z,9.67
2023-03-10T07:52:49.126Z,7.35
2023-03-10T07:55:16.036Z,10.04
2023-03-10T07:57:43.300Z,8.37
2023-03-10T08:00:11.557Z,7.67
2023-03-10T08:02:41.944Z,9.31
2023-03-10T08:05:10.356Z,9.34
2023-03-10T08:07:38.137Z,10.51
2023-03-10T08:10:05.594Z,11.17
2023-03-10T08:12:32.815Z,9.17
2023-03-10T08:15:00.156Z,10.27
2023-03-10T08:17:31.021Z,9.68
2023-03-10T08:19:59.465Z,10.74
2023-03-10T08:22:27.242Z,11.21
2023-03-10T08:24:54.349Z,11.67
2023-03-10T08:27:21.717Z,9.97
2023-03-10T08:29:48.741Z,13.72
2023-03-10T08:32:15.913Z,12.78
2023-03-10T08:34:43.524Z,12.45
2023-03-10T08:37:10.735Z,14.30
2023-03-10T08:39:37.928Z,11.22
2023-03-10T08:42:04.788Z,12.43
2023-03-10T08:44:31.863Z,11.07
2023-03-10T08:46:58.816Z,12.86
2023-03-10T08:49:25.645Z,11.60
2023-03-10T08:51:52.689Z,13.60
2023-03-10T08:54:21.554Z,13.59
2023-03-10T08:56:49.393Z,14.36
2023-03-10T08:59:16.617Z,14.21
2023-03-10T09:01:43.938Z,12.56
2023-03-10T09:04:11.117Z,12.77
2023-03-10T09:06:38.697Z,13.65
2023-03-10T09:09:08.038Z,13.28
2023-03-10T09:11:38.964Z,12.98
2023-03-10T09:14:08.262Z,12.00
2023-03-10T09:16:37.824Z,13.29
2023-03-10T09:19:05.026Z,15.35
2023-03-10T09:21:33.749Z,13.47
2023-03-10T09:24:02.627Z,13.84
2023-03-10T09:26:30.775Z,14.83
2023-03-10T09:28:58.016Z,15.75
2023-03-10T09:31:30.607Z,14.26
2023-03-10T09:33:57.494Z,16.85
2023-03-10T09:36:24.399Z,13.41
2023-03-10T09:38:51.232Z,16.40
2023-03-10T09:41:55.849Z,16.09
2023-03-10T09:44:50.476Z,15.68
2023-03-10T09:47:35.839Z,15.82
2023-03-10T09:50:32.934Z,17.01
2023-03-10T09:53:07.322Z,18.13
2023-03-10T09:55:47.461Z,15.96
2023-03-10T09:58:53.901Z,17.77
2023-03-10T10:01:23.784Z,18.32
2023-03-10T10:03:58.185Z,16.53
2023-03-10T10:06:33.026Z,16.49
2023-03-10T10:09:05.542Z,15.99
2023-03-10T10:11:34.816Z,16.81
2023-03-10T10:14:22.395Z,15.42
2023-03-10T10:16:56.325Z,16.59
2023-03-10T10:19:25.872Z,13.32
2023-03-10T10:22:02.191Z,15.25
2023-03-10T10:24:29.985Z,15.80
2023-03-10T10:26:57.296Z,16.43
2023-03-10T10:29:26.932Z,15.70
2023-03-10T10:32:19.221Z,15.45
2023-03-10T10:34:49.258Z,12.79
2023-03-10T10:37:24.338Z,14.48
2023-03-10T10:39:52.600Z,14.16
2023-03-10T10:42:26.890Z,12.42
2023-03-10T10:45:23.309Z,12.22
2023-03-10T10:47:52.030Z,8.42
2023-03-10T10:50:33.096Z,8.90
2023-03-10T10:53:27.069Z,9.63
2023-03-10T10:56:15.111Z,5.77
2023-03-10T10:58:44.158Z,6.09
2023-03-10T11:01:15.297Z,7.79
2023-03-10T11:03:48.928Z,7.43
2023-03-10T11:06:27.827Z,9.08
2023-03-10T11:09:18.453Z,9.47
2023-03-10T11:12:02.704Z,10.33
2023-03-10T11:14:52.435Z,9.90
2023-03-10T11:17:47.712Z,10.26
2023-03-10T11:20:41.968Z,10.38
2023-03-10T11:23:50.081Z,11.44
2023-03-10T11:26:45.470Z,10.70
2023-03-10T11:29:30.809Z,13.31
2023-03-10T11:32:25.800Z,11.27
2023-03-10T11:34:56.748Z,10.69
2023-03-10T11:37:41.545Z,10.95
2023-03-10T11:40:35.947Z,13.42
2023-03-10T11:43:27.115Z,15.72
2023-03-10T11:45:57.059Z,13.92
2023-03-10T11:48:54.903Z,14.85
2023-03-10T11:51:32.897Z,14.40
2023-03-10T11:54:04.796Z,12.60
2023-03-10T11:56:32.193Z,13.65
2023-03-10T11:59:18.332Z,12.91
2023-03-10T12:01:54.027Z,14.07
2023-03-10T12:04:39.394Z,14.75
2023-03-10T12:07:15.953Z,12.86
2023-03-10T12:09:54.353Z,12.23
2023-03-10T12:12:29.435Z,17.83
2023-03-10T12:14:59.416Z,14.86
2023-03-10T12:17:27.460Z,15.02
2023-03-10T12:20:16.336Z,14.15
2023-03-10T12:23:01.324Z,14.93
2023-03-10T12:25:29.096Z,16.41
2023-03-10T12:28:17.455Z,19.00
2023-03-10T12:31:32.561Z,11.73
2023-03-10T12:34:17.696Z,16.41
2023-03-10T12:36:47.387Z,15.41
2023-03-10T12:39:40.143Z,13.73
2023-03-10T12:42:29.335Z,12.54
2023-03-10T12:45:18.554Z,12.03
2023-03-10T12:47:56.749Z,13.90
2023-03-10T12:50:48.709Z,15.35
2023-03-10T12:53:43.730Z,15.76
2023-03-10T12:56:13.450Z,13.56
2023-03-10T12:58:48.792Z,14.36
2023-03-10T13:01:20.867Z,14.88
2023-03-10T13:03:54.128Z,14.15
2023-03-10T13:06:28.312Z,12.05
2023-03-10T13:08:56.445Z,9.58
2023-03-10T13:11:23.592Z,11.57
2023-03-10T13:13:53.957Z,12.56
2023-03-10T13:16:21.481Z,14.20
2023-03-10T13:18:50.103Z,12.01
2023-03-10T13:21:24.915Z,10.42
2023-03-10T13:23:51.893Z,14.53
2023-03-10T13:26:19.574Z,13.20
2023-03-10T13:29:03.094Z,12.85
2023-03-10T13:31:34.233Z,12.95
2023-03-10T13:34:20.306Z,15.53
2023-03-10T13:36:49.062Z,13.67
2023-03-10T13:39:27.739Z,12.59
2023-03-10T13:41:58.528Z,10.00
2023-03-10T13:44:28.916Z,10.95
2023-03-10T13:47:01.026Z,11.44
2023-03-10T13:49:33.221Z,10.30
2023-03-10T13:52:04.125Z,10.34
2023-03-10T13:54:35.415Z,9.66
2023-03-10T13:57:26.235Z,8.47
2023-03-10T13:59:54.925Z,8.67
2023-03-10T14:02:32.434Z,9.76
2023-03-10T14:05:06.246Z,10.51
2023-03-10T14:07:36.072Z,10.88
2023-03-10T14:10:05.933Z,11.24
2023-03-10T14:12:45.035Z,8.80
2023-03-10T14:15:14.785Z,10.07
2023-03-10T14:17:47.548Z,10.35
2023-03-10T14:20:32.522Z,11.77
2023-03-10T14:23:00.656Z,8.70
2023-03-10T14:25:27.823Z,10.95
2023-03-10T14:28:06.728Z,12.44
2023-03-10T14:30:35.079Z,11.99
2023-03-10T14:33:02.499Z,13.77
2023-03-10T14:35:29.867Z,11.03
2023-03-10T14:37:56.620Z,10.86
2023-03-10T14:40:24.964Z,11.05
2023-03-10T14:42:54.546Z,11.98
2023-03-10T14:45:34.279Z,10.14
2023-03-10T14:48:13.275Z,9.44
2023-03-10T14:50:40.655Z,10.10
2023-03-10T14:53:12.597Z,11.44
2023-03-10T14:55:41.857Z,8.28
2023-03-10T14:58:14.727Z,11.75
2023-03-10T15:00:41.576Z,10.51
2023-03-10T15:03:11.440Z,12.60
2023-03-10T15:05:48.283Z,10.36
2023-03-10T15:08:18.110Z,11.70
2023-03-10T15:10:50.932Z,9.15
2023-03-10T15:13:22.750Z,8.90
2023-03-10T15:15:50.898Z,8.08
2023-03-10T15:18:20.720Z,9.04
2023-03-10T15:20:48.309Z,8.25
2023-03-10T15:23:19.857Z,9.60
2023-03-10T15:25:47.324Z,9.67
2023-03-10T15:28:15.242Z,7.24
2023-03-10T15:30:42.172Z,10.42
2023-03-10T15:33:10.795Z,8.21
2023-03-10T15:35:38.831Z,7.26
2023-03-10T15:38:05.989Z,6.96
2023-03-10T15:40:34.727Z,8.22
2023-03-10T15:43:01.942Z,8.35
2023-03-10T15:45:31.450Z,7.05
2023-03-10T15:47:59.136Z,8.60
2023-03-10T15:50:26.615Z,7.45
2023-03-10T15:52:55.626Z,9.27
2023-03-10T15:55:23.927Z,8.28
2023-03-10T15:57:52.156Z,8.36
2023-03-10T16:00:21.820Z,8.13
2023-03-10T16:02:49.975Z,7.07
2023-03-10T16:05:17.206Z,6.85
2023-03-10T16:07:44.257Z,7.78
2023-03-10T16:10:16.718Z,8.65
2023-03-10T16:12:43.580Z,8.98
2023-03-10T16:15:11.340Z,8.71
2023-03-10T16:17:38.395Z,7.73
2023-03-10T16:20:11.928Z,7.83
2023-03-10T16:22:43.072Z,9.98
2023-03-10T16:25:17.953Z,8.86
2023-03-10T16:27:46.531Z,9.67
2023-03-10T16:30:15.756Z,8.77
2023-03-10T16:32:47.800Z,8.60
2023-03-10T16:35:15.564Z,8.83
2023-03-10T16:37:42.788Z,7.70
2023-03-10T16:40:10.323Z,9.88
2023-03-10T16:42:37.177Z,8.02
2023-03-10T16:45:06.489Z,6.66
2023-03-10T16:47:34.330Z,7.65
2023-03-10T16:50:01.814Z,7.47
2023-03-10T16:52:28.644Z,9.03
2023-03-10T16:55:01.421Z,7.87
2023-03-10T16:57:28.322Z,7.57
2023-03-10T16:59:55.303Z,6.71
2023-03-10T17:02:22.135Z,6.92
2023-03-10T17:04:49.557Z,6.24
2023-03-10T17:07:17.059Z,5.79
2023-03-10T17:09:45.867Z,6.29
2023-03-10T17:12:12.564Z,4.43
2023-03-10T17:14:39.311Z,5.31
2023-03-10T17:17:08.076Z,6.38
2023-03-10T17:19:37.010Z,6.17
2023-03-10T17:22:04.028Z,6.21
2023-03-10T17:24:31.484Z,6.63
2023-03-10T17:26:58.355Z,5.72
2023-03-10T17:29:25.089Z,6.48
2023-03-10T17:31:52.785Z,5.87
2023-03-10T17:34:21.351Z,4.85
2023-03-10T17:36:52.412Z,6.41
2023-03-10T17:39:22.689Z,5.52
2023-03-10T17:41:51.336Z,6.46
2023-03-10T17:44:19.982Z,7.48
2023-03-10T17:46:47.877Z,6.51
2023-03-10T17:49:15.612Z,5.50
2023-03-10T17:51:44.404Z,6.17
2023-03-10T17:54:14.285Z,5.70
2023-03-10T17:56:41.537Z,6.01
2023-03-10T17:59:10.714Z,5.75
2023-03-10T18:01:37.655Z,4.37
2023-03-10T18:04:05.256Z,7.40
2023-03-10T18:06:36.380Z,5.61
2023-03-10T18:09:09.369Z,4.35
2023-03-10T18:11:37.850Z,5.91
2023-03-10T18:14:06.781Z,6.01
2023-03-10T18:16:37.984Z,5.94
2023-03-10T18:19:10.504Z,5.75
2023-03-10T18:21:38.750Z,7.07
2023-03-10T18:24:08.312Z,7.57
2023-03-10T18:26:37.411Z,6.25
2023-03-10T18:29:06.660Z,6.92
2023-03-10T18:31:34.510Z,6.88
2023-03-10T18:34:03.486Z,6.43
2023-03-10T18:36:30.831Z,7.14
2023-03-10T18:38:58.172Z,8.03
2023-03-10T18:41:27.653Z,7.50
2023-03-10T18:43:54.380Z,6.94
2023-03-10T18:46:23.486Z,6.33
2023-03-10T18:48:55.626Z,6.62
2023-03-10T18:51:27.881Z,6.85
2023-03-10T18:53:55.123Z,6.33
2023-03-10T18:56:26.208Z,6.60
2023-03-10T18:58:53.781Z,6.53
2023-03-10T19:01:22.505Z,7.66
2023-03-10T19:03:49.407Z,6.36
2023-03-10T19:06:16.426Z,4.44
2023-03-10T19:08:44.258Z,3.86
2023-03-10T19:11:11.305Z,4.11
2023-03-10T19:13:40.677Z,7.69
2023-03-10T19:16:09.781Z,5.05
2023-03-10T19:18:38.809Z,6.21
2023-03-10T19:21:07.307Z,6.01
2023-03-10T19:23:35.032Z,5.35
2023-03-10T19:26:03.598Z,5.98
2023-03-10T19:28:31.410Z,5.61
2023-03-10T19:30:58.305Z,5.11
2023-03-10T19:33:25.141Z,6.11
2023-03-10T19:36:10.637Z,6.80
2023-03-10T19:38:40.948Z,6.43
2023-03-10T19:41:16.763Z,7.00
2023-03-10T19:43:54.667Z,5.65
2023-03-10T19:46:22.422Z,6.07
2023-03-10T19:48:49.168Z,4.62
2023-03-10T19:51:23.389Z,7.22
2023-03-10T19:53:53.535Z,5.44
2023-03-10T19:56:22.676Z,4.68
2023-03-10T19:58:50.105Z,5.89
2023-03-10T20:01:24.444Z,5.85
2023-03-10T20:03:54.083Z,5.42
2023-03-10T20:06:21.249Z,5.83
2023-03-10T20:08:48.234Z,6.96
2023-03-10T20:11:14.998Z,5.05
2023-03-10T20:13:43.292Z,5.45
2023-03-10T20:16:12.742Z,5.18
2023-03-10T20:18:40.326Z,3.97
2023-03-10T20:21:09.035Z,5.82
2023-03-10T20:23:35.950Z,6.33
2023-03-10T20:26:07.835Z,4.14
2023-03-10T20:28:37.045Z,6.15
2023-03-10T20:31:04.622Z,6.43
2023-03-10T20:33:32.024Z,4.35
2023-03-10T20:35:58.794Z,3.82
2023-03-10T20:38:25.662Z,4.60
2023-03-10T20:40:53.244Z,5.51
2023-03-10T20:43:20.137Z,5.71
2023-03-10T20:45:50.376Z,5.18
2023-03-10T20:48:17.403Z,4.39
2023-03-10T20:50:44.247Z,4.34
2023-03-10T20:53:10.930Z,5.85
2023-03-10T20:55:41.221Z,5.25
2023-03-10T20:58:09.521Z,5.26
2023-03-10T21:00:36.302Z,5.49
2023-03-10T21:03:03.806Z,7.40
2023-03-10T21:05:30.737Z,5.52
2023-03-10T21:07:58.313Z,4.93
2023-03-10T21:10:27.854Z,5.45
2023-03-10T21:12:54.826Z,6.10
2023-03-10T21:15:22.514Z,7.07
2023-03-10T21:17:50.265Z,5.90
2023-03-10T21:20:21.150Z,6.37
2023-03-10T21:22:51.050Z,6.29
2023-03-10T21:25:24.678Z,4.86
2023-03-10T21:27:58.690Z,5.44
2023-03-10T21:30:29.266Z,4.43
2023-03-10T21:32:57.445Z,4.78
2023-03-10T21:35:25.884Z,6.11
2023-03-10T21:37:52.806Z,3.97
2023-03-10T21:40:20.448Z,5.26
2023-03-10T21:42:48.320Z,4.69
2023-03-10T21:45:18.195Z,5.00
2023-03-10T21:47:45.767Z,4.71
2023-03-10T21:50:13.880Z,5.24
2023-03-10T21:52:41.677Z,5.31
2023-03-10T21:55:13.672Z,6.15
2023-03-10T21:57:40.604Z,3.39
2023-03-10T22:00:10.045Z,3.80
2023-03-10T22:02:38.049Z,2.22
2023-03-10T22:05:06.297Z,2.27
2023-03-10T22:07:33.427Z,5.45
2023-03-10T22:10:00.158Z,5.76
2023-03-10T22:12:26.894Z,4.69
2023-03-10T22:14:57.597Z,3.53
2023-03-10T22:17:26.256Z,1.95
2023-03-10T22:19:57.148Z,1.18
2023-03-10T22:22:25.340Z,2.39
2023-03-10T22:24:54.432Z,2.15
2023-03-10T22:27:21.183Z,3.03
2023-03-10T22:29:48.098Z,2.55
2023-03-10T22:32:15.033Z,4.45
2023-03-10T22:34:42.247Z,3.27
2023-03-10T22:37:10.371Z,3.18
2023-03-10T22:39:40.444Z,2.38
2023-03-10T22:42:07.276Z,2.70
2023-03-10T22:44:38.349Z,3.85
2023-03-10T22:47:06.057Z,2.87
2023-03-10T22:49:32.848Z,4.62
2023-03-10T22:51:59.733Z,2.84
2023-03-10T22:54:26.604Z,3.99
2023-03-10T22:56:53.566Z,4.55
2023-03-10T22:59:20.486Z,4.86
2023-03-10T23:01:47.531Z,5.25
2023-03-10T23:04:14.600Z,4.82
2023-03-10T23:06:41.749Z,3.39
2023-03-10T23:09:10.755Z,4.06
2023-03-10T23:11:38.365Z,4.89
2023-03-10T23:14:05.532Z,3.59
2023-03-10T23:16:36.735Z,5.43
2023-03-10T23:19:07.245Z,4.66
2023-03-10T23:21:36.459Z,4.16
2023-03-10T23:24:03.612Z,5.74
2023-03-10T23:26:31.492Z,4.75
2023-03-10T23:28:58.202Z,6.68
2023-03-10T23:31:26.417Z,2.76
2023-03-10T23:33:53.444Z,1.58
2023-03-10T23:36:20.516Z,2.13
2023-03-10T23:38:47.289Z,2.50
2023-03-10T23:41:14.032Z,2.64
2023-03-10T23:43:41.140Z,1.43
2023-03-10T23:46:09.307Z,1.55
2023-03-10T23:48:36.586Z,4.07
2023-03-10T23:51:04.154Z,3.17
2023-03-10T23:53:31.044Z,3.19
2023-03-10T23:56:00.056Z,2.79
2023-03-10T23:58:28.037Z,3.41
